createdAt,value
2023-01-05T00:01:50.011Z,-0.18
2023-01-05T00:04:16.811Z,-0.17
2023-01-05T00:06:46.784Z,-0.19
2023-01-05T00:09:17.759Z,-0.21
2023-01-05T00:12:04.615Z,-0.21
2023-01-05T00:14:51.240Z,-0.23
2023-01-05T00:17:44.833Z,-0.23
2023-01-05T00:20:37.927Z,-0.25
2023-01-05T00:23:05.480Z,-0.27
2023-01-05T00:25:36.743Z,-0.29
2023-01-05T00:28:03.496Z,-0.30
2023-01-05T00:30:47.334Z,-0.29
2023-01-05T00:33:19.535Z,-0.33
2023-01-05T00:35:49.021Z,-0.36
2023-01-05T00:38:18.670Z,-0.38
2023-01-05T00:40:45.565Z,-0.36
2023-01-05T00:43:12.277Z,-0.38
2023-01-05T00:45:38.956Z,-0.39
2023-01-05T00:48:05.821Z,-0.41
2023-01-05T00:50:32.561Z,-0.41
2023-01-05T00:53:01.891Z,-0.43
2023-01-05T00:55:28.546Z,-0.42
2023-01-05T00:57:58.401Z,-0.43
2023-01-05T01:00:25.149Z,-0.46
2023-01-05T01:02:53.069Z,-0.46
2023-01-05T01:05:22.813Z,-0.46
2023-01-05T01:07:53.104Z,-0.47
2023-01-05T01:10:22.170Z,-0.47
2023-01-05T01:12:48.834Z,-0.50
2023-01-05T01:15:15.503Z,-0.54
2023-01-05T01:17:42.190Z,-0.51
2023-01-05T01:20:09.538Z,-0.53
2023-01-05T01:22:36.220Z,-0.52
2023-01-05T01:25:02.918Z,-0.53
2023-01-05T01:27:33.243Z,-0.52
2023-01-05T01:29:59.901Z,-0.52
2023-01-05T01:32:29.037Z,-0.51
2023-01-05T01:34:58.645Z,-0.53
2023-01-05T01:37:25.404Z,-0.54
2023-01-05T01:39:52.109Z,-0.55
2023-01-05T01:42:21.387Z,-0.57
2023-01-05T01:44:51.425Z,-0.59
2023-01-05T01:47:37.030Z,-0.59
2023-01-05T01:50:13.856Z,-0.60
2023-01-05T01:52:45.289Z,-0.62
2023-01-05T01:55:12.394Z,-0.61
2023-01-05T01:57:39.965Z,-0.63
2023-01-05T02:00:09.401Z,-0.63
2023-01-05T02:02:36.184Z,-0.62
2023-01-05T02:05:11.766Z,-0.62
2023-01-05T02:07:44.860Z,-0.62
2023-01-05T02:10:12.039Z,-0.62
2023-01-05T02:13:29.518Z,-0.60
2023-01-05T02:16:10.095Z,-0.60
2023-01-05T02:18:55.177Z,-0.61
2023-01-05T02:21:32.677Z,-0.60
2023-01-05T02:24:27.890Z,-0.59
2023-01-05T02:27:37.107Z,-0.59
2023-01-05T02:30:15.795Z,-0.58
2023-01-05T02:33:03.040Z,-0.59
2023-01-05T02:35:40.441Z,-0.59
2023-01-05T02:38:30.205Z,-0.60
2023-01-05T02:41:08.844Z,-0.59
2023-01-05T02:43:38.288Z,-0.57
2023-01-05T02:46:05.145Z,-0.56
2023-01-05T02:48:37.390Z,-0.56
2023-01-05T02:51:10.976Z,-0.57
2023-01-05T02:53:45.037Z,-0.56
2023-01-05T02:56:23.715Z,-0.57
2023-01-05T02:59:07.042Z,-0.58
2023-01-05T03:01:38.962Z,-0.61
2023-01-05T03:04:14.398Z,-0.60
2023-01-05T03:07:06.606Z,-0.60
2023-01-05T03:09:38.010Z,-0.62
2023-01-05T03:12:38.954Z,-0.63
2023-01-05T03:15:24.705Z,-0.63
2023-01-05T03:17:55.085Z,-0.64
2023-01-05T03:20:25.048Z,-0.65
2023-01-05T03:23:12.502Z,-0.65
2023-01-05T03:25:59.795Z,-0.64
2023-01-05T03:28:53.354Z,-0.66
2023-01-05T03:31:44.991Z,-0.68
2023-01-05T03:34:40.492Z,-0.72
2023-01-05T03:37:12.025Z,-0.73
2023-01-05T03:39:44.637Z,-0.72
2023-01-05T03:42:12.095Z,-0.73
2023-01-05T03:44:40.567Z,-0.70
2023-01-05T03:47:07.389Z,-0.70
2023-01-05T03:49:34.111Z,-0.72
2023-01-05T03:52:00.793Z,-0.74
2023-01-05T03:54:27.539Z,-0.73
2023-01-05T03:56:54.500Z,-0.71
2023-01-05T03:59:21.328Z,-0.72
2023-01-05T04:01:48.364Z,-0.73
2023-01-05T04:04:18.133Z,-0.73
2023-01-05T04:06:45.002Z,-0.73
2023-01-05T04:09:12.030Z,-0.71
2023-01-05T04:11:38.829Z,-0.71
2023-01-05T04:14:05.512Z,-0.72
2023-01-05T04:16:32.634Z,-0.73
2023-01-05T04:18:59.377Z,-0.74
2023-01-05T04:21:33.209Z,-0.75
2023-01-05T04:23:59.912Z,-0.75
2023-01-05T04:26:26.566Z,-0.76
2023-01-05T04:28:58.247Z,-0.75
2023-01-05T04:31:34.141Z,-0.76
2023-01-05T04:34:00.866Z,-0.75
2023-01-05T04:36:27.591Z,-0.73
2023-01-05T04:39:01.484Z,-0.74
2023-01-05T04:41:29.500Z,-0.76
2023-01-05T04:43:56.385Z,-0.76
2023-01-05T04:46:23.069Z,-0.78
2023-01-05T04:48:49.965Z,-0.78
2023-01-05T04:51:19.270Z,-0.77
2023-01-05T04:53:46.144Z,-0.76
2023-01-05T04:56:12.861Z,-0.76
2023-01-05T04:58:39.692Z,-0.77
2023-01-05T05:01:11.130Z,-0.75
2023-01-05T05:03:37.925Z,-0.76
2023-01-05T05:06:04.782Z,-0.77
2023-01-05T05:08:35.598Z,-0.78
2023-01-05T05:11:04.909Z,-0.77
2023-01-05T05:13:34.660Z,-0.77
2023-01-05T05:16:01.730Z,-0.74
2023-01-05T05:18:31.905Z,-0.74
2023-01-05T05:20:58.904Z,-0.74
2023-01-05T05:23:25.908Z,-0.75
2023-01-05T05:25:52.737Z,-0.77
2023-01-05T05:28:20.511Z,-0.77
2023-01-05T05:30:49.263Z,-0.79
2023-01-05T05:33:16.160Z,-0.78
2023-01-05T05:35:42.977Z,-0.78
2023-01-05T05:38:09.663Z,-0.82
2023-01-05T05:40:36.373Z,-0.82
2023-01-05T05:43:03.135Z,-0.87
2023-01-05T05:45:29.819Z,-0.87
2023-01-05T05:47:56.555Z,-0.91
2023-01-05T05:50:23.237Z,-0.90
2023-01-05T05:52:50.298Z,-0.91
2023-01-05T05:55:17.020Z,-0.91
2023-01-05T05:57:43.658Z,-0.93
2023-01-05T06:00:11.053Z,-0.92
2023-01-05T06:02:37.831Z,-0.93
2023-01-05T06:05:05.009Z,-0.93
2023-01-05T06:07:31.652Z,-0.98
2023-01-05T06:09:58.509Z,-0.99
2023-01-05T06:12:25.384Z,-0.99
2023-01-05T06:14:52.214Z,-1.02
2023-01-05T06:17:18.874Z,-1.02
2023-01-05T06:19:45.538Z,-1.00
2023-01-05T06:22:12.234Z,-1.01
2023-01-05T06:24:38.981Z,-1.02
2023-01-05T06:27:05.659Z,-1.01
2023-01-05T06:29:32.317Z,-1.03
2023-01-05T06:31:59.041Z,-1.04
2023-01-05T06:34:25.714Z,-1.09
2023-01-05T06:36:52.370Z,-1.11
2023-01-05T06:39:19.081Z,-1.14
2023-01-05T06:41:45.739Z,-1.15
2023-01-05T06:44:12.529Z,-1.17
2023-01-05T06:46:40.881Z,-1.18
2023-01-05T06:49:08.406Z,-1.21
2023-01-05T06:51:35.124Z,-1.21
2023-01-05T06:54:01.798Z,-1.23
2023-01-05T06:56:28.462Z,-1.23
2023-01-05T06:58:55.145Z,-1.25
2023-01-05T07:01:22.019Z,-1.28
2023-01-05T07:03:48.800Z,-1.30
2023-01-05T07:06:16.500Z,-1.31
2023-01-05T07:08:43.825Z,-1.32
2023-01-05T07:11:10.462Z,-1.35
2023-01-05T07:13:37.221Z,-1.35
2023-01-05T07:16:04.074Z,-1.39
2023-01-05T07:18:30.890Z,-1.39
2023-01-05T07:21:00.512Z,-1.39
2023-01-05T07:23:27.233Z,-1.41
2023-01-05T07:25:54.047Z,-1.42
2023-01-05T07:28:20.712Z,-1.45
2023-01-05T07:30:53.632Z,-1.47
2023-01-05T07:33:20.341Z,-1.47
2023-01-05T07:35:47.238Z,-1.50
2023-01-05T07:38:14.039Z,-1.54
2023-01-05T07:40:40.702Z,-1.57
2023-01-05T07:43:07.548Z,-1.57
2023-01-05T07:45:34.313Z,-1.59
2023-01-05T07:48:02.494Z,-1.61
2023-01-05T07:50:29.792Z,-1.67
2023-01-05T07:52:58.913Z,-1.70
2023-01-05T07:55:25.748Z,-1.75
2023-01-05T07:57:52.488Z,-1.77
2023-01-05T08:00:19.571Z,-1.78
2023-01-05T08:02:46.302Z,-1.82
2023-01-05T08:05:13.116Z,-1.85
2023-01-05T08:07:39.881Z,-1.87
2023-01-05T08:10:25.609Z,-1.85
2023-01-05T08:13:10.837Z,-1.89
2023-01-05T08:15:37.518Z,-1.92
2023-01-05T08:18:04.371Z,-1.94
2023-01-05T08:20:31.056Z,-1.96
2023-01-05T08:22:57.867Z,-1.98
2023-01-05T08:25:24.574Z,-2.01
2023-01-05T08:27:51.234Z,-2.01
2023-01-05T08:30:17.891Z,-2.01
2023-01-05T08:32:45.598Z,-2.01
2023-01-05T08:35:12.352Z,-2.03
2023-01-05T08:37:39.711Z,-2.08
2023-01-05T08:40:07.189Z,-2.10
2023-01-05T08:42:33.845Z,-2.11
2023-01-05T08:45:00.511Z,-2.10
2023-01-05T08:47:28.640Z,-2.09
2023-01-05T08:49:55.527Z,-2.11
2023-01-05T08:52:23.347Z,-2.13
2023-01-05T08:54:50.577Z,-2.14
2023-01-05T08:57:17.368Z,-2.16
2023-01-05T08:59:44.031Z,-2.18
2023-01-05T09:02:12.766Z,-2.15
2023-01-05T09:04:39.762Z,-2.17
2023-01-05T09:07:06.529Z,-2.20
2023-01-05T09:09:33.261Z,-2.20
2023-01-05T09:12:00.011Z,-2.21
2023-01-05T09:14:26.759Z,-2.22
2023-01-05T09:17:09.597Z,-2.25
2023-01-05T09:19:36.877Z,-2.28
2023-01-05T09:22:04.028Z,-2.30
2023-01-05T09:24:30.751Z,-2.27
2023-01-05T09:26:57.503Z,-2.24
2023-01-05T09:29:24.204Z,-2.21
2023-01-05T09:31:50.852Z,-2.21
2023-01-05T09:34:19.207Z,-2.20
2023-01-05T09:36:46.226Z,-2.19
2023-01-05T09:39:12.947Z,-2.20
2023-01-05T09:41:45.890Z,-2.22
2023-01-05T09:44:17.295Z,-2.23
2023-01-05T09:46:48.130Z,-2.26
2023-01-05T09:49:17.126Z,-2.29
2023-01-05T09:51:44.187Z,-2.32
2023-01-05T09:54:17.530Z,-2.30
2023-01-05T09:59:38.889Z,-2.38
2023-01-05T10:02:18.371Z,-2.42
2023-01-05T10:04:47.358Z,-2.42
2023-01-05T10:07:45.940Z,-2.44
2023-01-05T10:10:45.390Z,-2.46
2023-01-05T10:13:31.696Z,-2.46
2023-01-05T10:15:58.444Z,-2.52
2023-01-05T10:18:27.945Z,-2.56
2023-01-05T10:21:15.741Z,-2.60
2023-01-05T10:23:45.213Z,-2.62
2023-01-05T10:26:50.995Z,-2.62
2023-01-05T10:29:26.833Z,-2.61
2023-01-05T10:32:26.901Z,-2.59
2023-01-05T10:35:07.063Z,-2.61
2023-01-05T10:37:53.938Z,-2.63
2023-01-05T10:40:44.619Z,-2.62
2023-01-05T10:43:38.456Z,-2.62
2023-01-05T10:48:54.933Z,-2.65
2023-01-05T10:51:22.233Z,-2.66
2023-01-05T10:53:49.161Z,-2.69
2023-01-05T10:56:24.483Z,-2.71
2023-01-05T10:59:10.389Z,-2.70
2023-01-05T11:01:38.775Z,-2.68
2023-01-05T11:04:33.330Z,-2.70
2023-01-05T11:07:07.693Z,-2.70
2023-01-05T11:09:40.216Z,-2.70
2023-01-05T11:12:22.312Z,-2.69
2023-01-05T11:14:58.320Z,-2.70
2023-01-05T11:17:28.658Z,-2.73
2023-01-05T11:19:57.987Z,-2.74
2023-01-05T11:22:38.681Z,-2.75
2023-01-05T11:25:27.691Z,-2.72
2023-01-05T11:28:15.962Z,-2.74
2023-01-05T11:31:00.587Z,-2.73
2023-01-05T11:33:28.796Z,-2.72
2023-01-05T11:35:57.134Z,-2.72
2023-01-05T11:38:27.590Z,-2.74
2023-01-05T11:40:57.678Z,-2.80
2023-01-05T11:43:28.305Z,-2.83
2023-01-05T11:45:59.248Z,-2.83
2023-01-05T11:48:33.258Z,-2.81
2023-01-05T11:50:59.998Z,-2.82
2023-01-05T11:53:35.543Z,-2.82
2023-01-05T11:56:21.449Z,-2.80
2023-01-05T11:58:57.808Z,-2.79
2023-01-05T12:01:48.875Z,-2.77
2023-01-05T12:04:28.096Z,-2.75
2023-01-05T12:07:17.194Z,-2.80
2023-01-05T12:10:27.430Z,-2.84
2023-01-05T12:13:20.386Z,-2.86
2023-01-05T12:16:22.499Z,-2.86
2023-01-05T12:19:10.913Z,-2.88
2023-01-05T12:22:02.421Z,-2.91
2023-01-05T12:24:41.335Z,-2.95
2023-01-05T12:27:16.863Z,-2.97
2023-01-05T12:35:52.180Z,-2.95
2023-01-05T12:38:25.546Z,-2.96
2023-01-05T12:40:52.216Z,-2.98
2023-01-05T12:43:47.204Z,-2.99
2023-01-05T12:46:40.839Z,-2.98
2023-01-05T12:49:25.860Z,-3.00
2023-01-05T12:52:06.528Z,-3.04
2023-01-05T12:54:42.322Z,-3.05
2023-01-05T12:57:29.231Z,-3.06
2023-01-05T13:00:06.115Z,-3.09
2023-01-05T13:02:36.748Z,-3.13
2023-01-05T13:05:17.112Z,-3.13
2023-01-05T13:07:46.619Z,-3.14
2023-01-05T13:10:33.469Z,-3.14
2023-01-05T13:13:05.788Z,-3.15
2023-01-05T13:15:52.745Z,-3.15
2023-01-05T13:18:23.730Z,-3.18
2023-01-05T13:20:56.217Z,-3.21
2023-01-05T13:23:26.925Z,-3.23
2023-01-05T13:26:04.451Z,-3.26
2023-01-05T13:28:32.997Z,-3.28
2023-01-05T13:31:00.763Z,-3.29
2023-01-05T13:34:05.134Z,-3.30
2023-01-05T13:36:47.490Z,-3.31
2023-01-05T13:39:32.668Z,-3.33
2023-01-05T13:42:12.035Z,-3.31
2023-01-05T13:45:14.835Z,-3.34
2023-01-05T13:48:12.546Z,-3.35
2023-01-05T13:51:10.995Z,-3.33
2023-01-05T13:53:40.373Z,-3.34
2023-01-05T13:56:19.700Z,-3.37
2023-01-05T13:59:12.121Z,-3.38
2023-01-05T14:01:47.094Z,-3.38
2023-01-05T14:04:34.109Z,-3.37
2023-01-05T14:07:06.901Z,-3.36
2023-01-05T14:09:45.638Z,-3.38
2023-01-05T14:12:12.312Z,-3.43
2023-01-05T14:15:00.503Z,-3.44
2023-01-05T14:17:52.754Z,-3.48
2023-01-05T14:20:31.723Z,-3.52
2023-01-05T14:22:59.509Z,-3.57
2023-01-05T14:25:38.045Z,-3.61
2023-01-05T14:28:43.403Z,-3.65
2023-01-05T14:31:21.622Z,-3.70
2023-01-05T14:33:57.428Z,-3.73
2023-01-05T14:36:42.586Z,-3.78
2023-01-05T14:39:18.588Z,-3.81
2023-01-05T14:42:29.004Z,-3.82
2023-01-05T14:45:00.602Z,-3.85
2023-01-05T14:47:42.491Z,-3.89
2023-01-05T14:50:28.043Z,-3.89
2023-01-05T14:53:09.938Z,-3.88
2023-01-05T14:55:59.722Z,-3.87
2023-01-05T14:58:38.363Z,-3.89
2023-01-05T15:01:19.469Z,-3.91
2023-01-05T15:03:58.654Z,-3.95
2023-01-05T15:06:28.177Z,-3.95
2023-01-05T15:09:16.360Z,-3.94
2023-01-05T15:12:07.662Z,-3.91
2023-01-05T15:14:55.673Z,-3.93
2023-01-05T15:17:58.892Z,-3.95
2023-01-05T15:20:57.171Z,-3.98
2023-01-05T15:23:54.449Z,-4.00
2023-01-05T15:26:42.789Z,-4.01
2023-01-05T15:29:40.695Z,-4.03
2023-01-05T15:32:17.191Z,-4.03
2023-01-05T15:34:55.304Z,-3.99
2023-01-05T15:37:25.889Z,-3.94
2023-01-05T15:39:55.911Z,-3.93
2023-01-05T15:42:42.549Z,-3.91
2023-01-05T15:45:30.250Z,-3.93
2023-01-05T15:48:00.934Z,-3.93
2023-01-05T15:50:39.133Z,-3.91
2023-01-05T15:53:05.924Z,-3.88
2023-01-05T15:55:32.788Z,-3.88
2023-01-05T15:58:04.966Z,-3.85
2023-01-05T16:00:36.353Z,-3.85
2023-01-05T16:03:25.536Z,-3.86
2023-01-05T16:06:00.500Z,-3.87
2023-01-05T16:08:27.566Z,-3.86
2023-01-05T16:10:57.299Z,-3.84
2023-01-05T16:13:48.520Z,-3.83
2023-01-05T16:16:50.544Z,-3.80
2023-01-05T16:19:54.918Z,-3.81
2023-01-05T16:22:33.413Z,-3.83
2023-01-05T16:25:06.158Z,-3.84
2023-01-05T16:27:39.923Z,-3.86
2023-01-05T16:30:30.984Z,-3.89
2023-01-05T16:33:03.330Z,-3.92
2023-01-05T16:35:30.795Z,-3.94
2023-01-05T16:38:09.866Z,-3.96
2023-01-05T16:40:41.283Z,-4.01
2023-01-05T16:43:22.922Z,-4.04
2023-01-05T16:45:54.969Z,-4.08
2023-01-05T16:48:38.856Z,-4.14
2023-01-05T16:51:07.282Z,-4.17
2023-01-05T16:53:35.883Z,-4.21
2023-01-05T16:56:02.554Z,-4.25
2023-01-05T16:58:29.163Z,-4.30
2023-01-05T17:01:14.364Z,-4.35
2023-01-05T17:03:42.395Z,-4.40
2023-01-05T17:06:25.485Z,-4.43
2023-01-05T17:08:54.221Z,-4.48
2023-01-05T17:11:21.561Z,-4.49
2023-01-05T17:13:52.584Z,-4.49
2023-01-05T17:16:20.767Z,-4.54
2023-01-05T17:18:49.530Z,-4.56
2023-01-05T17:21:23.243Z,-4.56
2023-01-05T17:23:53.270Z,-4.59
2023-01-05T17:26:32.832Z,-4.61
2023-01-05T17:31:35.557Z,-4.66
2023-01-05T17:34:02.686Z,-4.67
2023-01-05T17:36:32.930Z,-4.67
2023-01-05T17:39:00.187Z,-4.68
2023-01-05T17:41:26.843Z,-4.68
2023-01-05T17:43:53.509Z,-4.70
2023-01-05T17:46:22.471Z,-4.68
2023-01-05T17:48:49.207Z,-4.71
2023-01-05T17:51:16.116Z,-4.71
2023-01-05T17:53:42.769Z,-4.73
2023-01-05T17:56:09.492Z,-4.76
2023-01-05T17:58:36.204Z,-4.81
2023-01-05T18:01:04.801Z,-4.88
2023-01-05T18:03:31.532Z,-4.91
2023-01-05T18:06:00.737Z,-4.94
2023-01-05T18:08:27.760Z,-4.99
2023-01-05T18:10:54.565Z,-5.01
2023-01-05T18:13:22.778Z,-5.00
2023-01-05T18:15:52.822Z,-5.01
2023-01-05T18:18:21.500Z,-5.00
2023-01-05T18:20:51.468Z,-5.01
2023-01-05T18:23:20.100Z,-5.04
2023-01-05T18:25:47.067Z,-5.06
2023-01-05T18:28:13.767Z,-5.10
2023-01-05T18:30:42.295Z,-5.14
2023-01-05T18:33:09.128Z,-5.12
2023-01-05T18:35:37.311Z,-5.10
2023-01-05T18:38:05.364Z,-5.10
2023-01-05T18:40:32.171Z,-5.11
2023-01-05T18:42:59.178Z,-5.13
2023-01-05T18:45:38.211Z,-5.15
2023-01-05T18:48:05.910Z,-5.17
2023-01-05T18:50:32.595Z,-5.16
2023-01-05T18:52:59.257Z,-5.16
2023-01-05T18:55:25.917Z,-5.17
2023-01-05T18:57:52.647Z,-5.14
2023-01-05T19:00:19.504Z,-5.15
2023-01-05T19:02:46.219Z,-5.17
2023-01-05T19:05:12.893Z,-5.21
2023-01-05T19:07:39.886Z,-5.24
2023-01-05T19:10:06.953Z,-5.27
2023-01-05T19:12:33.628Z,-5.29
2023-01-05T19:15:00.323Z,-5.24
2023-01-05T19:17:27.005Z,-5.21
2023-01-05T19:19:55.043Z,-5.21
2023-01-05T19:22:21.785Z,-5.21
2023-01-05T19:24:48.439Z,-5.17
2023-01-05T19:27:15.123Z,-5.16
2023-01-05T19:29:42.226Z,-5.15
2023-01-05T19:32:08.945Z,-5.16
2023-01-05T19:34:35.732Z,-5.17
2023-01-05T19:37:05.620Z,-5.20
2023-01-05T19:39:32.453Z,-5.19
2023-01-05T19:41:59.239Z,-5.22
2023-01-05T19:44:26.252Z,-5.25
2023-01-05T19:46:54.183Z,-5.24
2023-01-05T19:49:29.792Z,-5.25
2023-01-05T19:51:56.733Z,-5.22
2023-01-05T19:54:25.417Z,-5.26
2023-01-05T19:56:53.013Z,-5.26
2023-01-05T19:59:26.313Z,-5.26
2023-01-05T20:01:55.043Z,-5.24
2023-01-05T20:04:21.762Z,-5.22
2023-01-05T20:06:48.514Z,-5.21
2023-01-05T20:09:17.626Z,-5.22
2023-01-05T20:11:47.194Z,-5.22
2023-01-05T20:14:15.079Z,-5.22
2023-01-05T20:16:44.672Z,-5.24
2023-01-05T20:19:12.165Z,-5.26
2023-01-05T20:21:39.220Z,-5.29
2023-01-05T20:24:10.876Z,-5.31
2023-01-05T20:26:37.636Z,-5.31
2023-01-05T20:29:04.572Z,-5.29
2023-01-05T20:31:34.747Z,-5.31
2023-01-05T20:34:11.561Z,-5.26
2023-01-05T20:36:38.812Z,-5.26
2023-01-05T20:39:07.071Z,-5.30
2023-01-05T20:41:37.040Z,-5.31
2023-01-05T20:44:04.535Z,-5.30
2023-01-05T20:46:43.790Z,-5.32
2023-01-05T20:49:10.798Z,-5.33
2023-01-05T20:51:37.793Z,-5.34
2023-01-05T20:54:06.138Z,-5.36
2023-01-05T20:56:38.416Z,-5.37
2023-01-05T20:59:08.375Z,-5.38
2023-01-05T21:01:38.531Z,-5.38
2023-01-05T21:04:06.488Z,-5.39
2023-01-05T21:06:33.758Z,-5.43
2023-01-05T21:09:01.651Z,-5.48
2023-01-05T21:11:29.662Z,-5.54
2023-01-05T21:13:57.663Z,-5.59
2023-01-05T21:16:30.613Z,-5.61
2023-01-05T21:18:59.758Z,-5.61
2023-01-05T21:21:29.130Z,-5.60
2023-01-05T21:23:55.910Z,-5.61
2023-01-05T21:26:23.355Z,-5.65
2023-01-05T21:28:52.455Z,-5.68
2023-01-05T21:31:21.957Z,-5.70
2023-01-05T21:33:48.758Z,-5.71
2023-01-05T21:36:36.222Z,-5.73
2023-01-05T21:39:07.336Z,-5.76
2023-01-05T21:41:54.128Z,-5.80
2023-01-05T21:44:20.986Z,-5.83
2023-01-05T21:46:49.279Z,-5.83
2023-01-05T21:49:17.027Z,-5.81
2023-01-05T21:52:02.550Z,-5.81
2023-01-05T21:54:47.928Z,-5.80
2023-01-05T21:57:14.629Z,-5.83
2023-01-05T21:59:42.642Z,-5.82
2023-01-05T22:02:10.127Z,-5.82
2023-01-05T22:04:36.996Z,-5.80
2023-01-05T22:07:07.267Z,-5.81
2023-01-05T22:09:37.009Z,-5.79
2023-01-05T22:12:07.327Z,-5.79
2023-01-05T22:14:34.407Z,-5.83
2023-01-05T22:17:01.283Z,-5.84
2023-01-05T22:19:28.145Z,-5.86
2023-01-05T22:21:54.826Z,-5.87
2023-01-05T22:24:21.564Z,-5.88
2023-01-05T22:26:48.267Z,-5.91
2023-01-05T22:29:14.916Z,-5.91
2023-01-05T22:31:41.645Z,-5.89
2023-01-05T22:34:09.259Z,-5.86
2023-01-05T22:36:35.974Z,-5.86
2023-01-05T22:39:02.657Z,-5.86
2023-01-05T22:41:31.115Z,-5.88
2023-01-05T22:43:58.779Z,-5.90
2023-01-05T22:46:27.955Z,-5.87
2023-01-05T22:48:56.050Z,-5.86
2023-01-05T22:51:28.981Z,-5.83
2023-01-05T22:53:56.739Z,-5.84
2023-01-05T22:56:25.616Z,-5.83
2023-01-05T22:58:52.357Z,-5.80
2023-01-05T23:01:22.071Z,-5.78
2023-01-05T23:03:49.670Z,-5.77
2023-01-05T23:06:16.715Z,-5.75
2023-01-05T23:08:44.013Z,-5.71
2023-01-05T23:11:22.056Z,-5.67
2023-01-05T23:13:49.493Z,-5.66
2023-01-05T23:16:16.634Z,-5.69
2023-01-05T23:18:43.897Z,-5.70
2023-01-05T23:21:12.774Z,-5.71
2023-01-05T23:23:40.184Z,-5.70
2023-01-05T23:26:08.729Z,-5.68
2023-01-05T23:28:35.536Z,-5.66
2023-01-05T23:31:02.261Z,-5.67
2023-01-05T23:33:31.625Z,-5.66
2023-01-05T23:35:58.352Z,-5.65
2023-01-05T23:38:26.258Z,-5.64
2023-01-05T23:40:56.609Z,-5.64
2023-01-05T23:43:26.531Z,-5.61
2023-01-05T23:46:00.869Z,-5.63
2023-01-05T23:48:28.117Z,-5.65
2023-01-05T23:50:55.895Z,-5.65
2023-01-05T23:53:23.348Z,-5.65
2023-01-05T23:55:50.329Z,-5.65
2023-01-05T23:58:17.095Z,-5.68
